Time,TemperatureF,DewpointF,PressureIn,WindDirection,WindDirectionDegrees,WindSpeedMPH,WindSpeedGustMPH,Humidity,HourlyPrecipIn,Conditions,Clouds,dailyrainin,SoftwareType,DateUTC
2013-03-29 00:00:00,37.4,25.0,30.26,SSE,158,0.0,0.0,60,0.00,,,0.00,WUHU216HW,2013-03-29 04:00:00,
2013-03-29 00:01:00,37.2,24.8,30.26,SSE,158,0.0,0.0,60,0.00,,,0.00,WUHU216HW,2013-03-29 04:01:00,
2013-03-29 00:06:00,37.2,24.8,30.27,ESE,113,2.9,2.9,60,0.00,,,0.00,WUHU216HW,2013-03-29 04:06:00,
2013-03-29 00:11:00,37.2,24.8,30.26,ESE,113,0.0,2.9,60,0.00,,,0.00,WUHU216HW,2013-03-29 04:11:00,
2013-03-29 00:16:00,37.2,25.2,30.27,SE,135,0.4,1.7,61,0.00,,,0.00,WUHU216HW,2013-03-29 04:16:00,
2013-03-29 00:21:00,37.2,25.2,30.26,WSW,248,3.1,3.1,61,0.00,,,0.00,WUHU216HW,2013-03-29 04:21:00,
2013-03-29 00:27:00,37.2,25.2,30.26,SSW,203,1.5,3.1,61,0.00,,,0.00,WUHU216HW,2013-03-29 04:27:00,
2013-03-29 00:32:00,37.2,25.2,30.26,SSW,203,0.0,1.5,61,0.00,,,0.00,WUHU216HW,2013-03-29 04:32:00,
2013-03-29 00:37:00,37.0,25.4,30.26,SSW,203,0.0,0.0,62,0.00,,,0.00,WUHU216HW,2013-03-29 04:37:00,
2013-03-29 00:42:00,37.0,25.4,30.26,SSW,203,0.0,0.0,62,0.00,,,0.00,WUHU216HW,2013-03-29 04:42:00,
2013-03-29 00:47:00,36.6,25.0,30.26,SSW,203,0.0,0.0,62,0.00,,,0.00,WUHU216HW,2013-03-29 04:47:00,
2013-03-29 00:52:00,36.6,25.0,30.26,SSW,203,0.0,0.0,62,0.00,,,0.00,WUHU216HW,2013-03-29 04:52:00,
2013-03-29 00:57:00,36.5,24.9,30.26,SSW,203,0.0,0.0,62,0.00,,,0.00,WUHU216HW,2013-03-29 04:57:00,
2013-03-29 01:02:00,36.6,25.0,30.26,SSW,203,0.0,0.0,62,0.00,,,0.00,WUHU216HW,2013-03-29 05:02:00,
2013-03-29 01:07:00,36.6,25.0,30.26,SSW,203,1.7,1.7,62,0.00,,,0.00,WUHU216HW,2013-03-29 05:07:00,
2013-03-29 01:12:00,36.6,25.0,30.26,SSW,203,0.0,1.7,62,0.00,,,0.00,WUHU216HW,2013-03-29 05:12:00,
2013-03-29 01:17:00,36.5,25.3,30.26,South,180,0.2,2.9,63,0.00,,,0.00,WUHU216HW,2013-03-29 05:17:00,
2013-03-29 01:22:00,36.3,25.5,30.26,South,180,0.0,2.9,64,0.00,,,0.00,WUHU216HW,2013-03-29 05:22:00,
2013-03-29 01:27:00,35.7,24.9,30.26,SSE,158,0.0,3.8,64,0.00,,,0.00,WUHU216HW,2013-03-29 05:27:00,
2013-03-29 01:32:00,35.6,24.8,30.27,South,180,0.0,3.8,64,0.00,,,0.00,WUHU216HW,2013-03-29 05:32:00,
2013-03-29 01:38:00,35.4,24.6,30.27,South,180,0.0,2.0,64,0.00,,,0.00,WUHU216HW,2013-03-29 05:38:00,
2013-03-29 01:43:00,35.2,24.8,30.27,South,180,0.0,2.0,65,0.00,,,0.00,WUHU216HW,2013-03-29 05:43:00,
2013-03-29 01:48:00,35.2,24.4,30.27,South,180,0.0,0.0,64,0.00,,,0.00,WUHU216HW,2013-03-29 05:48:00,
2013-03-29 01:53:00,35.4,25.0,30.26,South,180,0.0,0.0,65,0.00,,,0.00,WUHU216HW,2013-03-29 05:53:00,
2013-03-29 01:58:00,35.2,24.8,30.27,SSE,158,2.6,2.6,65,0.00,,,0.00,WUHU216HW,2013-03-29 05:58:00,
2013-03-29 02:03:00,34.8,24.0,30.27,SSE,158,0.0,2.6,64,0.00,,,0.00,WUHU216HW,2013-03-29 06:03:00,
2013-03-29 02:08:00,34.8,24.4,30.27,SSE,158,3.5,3.5,65,0.00,,,0.00,WUHU216HW,2013-03-29 06:08:00,
2013-03-29 02:13:00,34.8,24.4,30.27,SSE,158,0.0,3.5,65,0.00,,,0.00,WUHU216HW,2013-03-29 06:13:00,
2013-03-29 02:18:00,35.2,24.8,30.27,SSE,158,0.0,0.0,65,0.00,,,0.00,WUHU216HW,2013-03-29 06:18:00,
2013-03-29 02:23:00,35.4,25.0,30.27,SSE,158,0.0,0.0,65,0.00,,,0.00,WUHU216HW,2013-03-29 06:23:00,
2013-03-29 02:28:00,35.4,25.4,30.27,SSE,158,2.8,4.0,66,0.00,,,0.00,WUHU216HW,2013-03-29 06:28:00,
2013-03-29 02:33:00,35.4,25.4,30.27,SSE,158,0.0,4.0,66,0.00,,,0.00,WUHU216HW,2013-03-29 06:33:00,
2013-03-29 02:38:00,35.4,25.0,30.26,SSE,158,0.0,1.7,65,0.00,,,0.00,WUHU216HW,2013-03-29 06:38:00,
2013-03-29 02:43:00,35.7,25.6,30.27,SSE,158,1.5,4.4,66,0.00,,,0.00,WUHU216HW,2013-03-29 06:43:00,
2013-03-29 02:48:00,35.7,25.6,30.26,SSE,158,0.8,4.4,66,0.00,,,0.00,WUHU216HW,2013-03-29 06:48:00,
2013-03-29 02:53:00,35.7,25.6,30.26,SSE,158,4.2,4.2,66,0.00,,,0.00,WUHU216HW,2013-03-29 06:53:00,
2013-03-29 02:58:00,35.7,25.6,30.27,SE,135,2.4,4.2,66,0.00,,,0.00,WUHU216HW,2013-03-29 06:58:00,
2013-03-29 03:03:00,35.7,25.6,30.26,SE,135,2.6,2.6,66,0.00,,,0.00,WUHU216HW,2013-03-29 07:03:00,
2013-03-29 03:09:00,35.9,25.8,30.26,SE,135,2.3,2.6,66,0.00,,,0.00,WUHU216HW,2013-03-29 07:09:00,
2013-03-29 03:14:00,36.1,25.7,30.27,SE,135,2.4,3.1,65,0.00,,,0.00,WUHU216HW,2013-03-29 07:14:00,
2013-03-29 03:19:00,36.1,25.7,30.27,SE,135,3.8,3.8,65,0.00,,,0.00,WUHU216HW,2013-03-29 07:19:00,
2013-03-29 03:24:00,35.9,25.8,30.26,SE,135,3.3,3.8,66,0.00,,,0.00,WUHU216HW,2013-03-29 07:24:00,
2013-03-29 03:29:00,35.7,25.3,30.26,SE,135,0.0,3.3,65,0.00,,,0.00,WUHU216HW,2013-03-29 07:29:00,
2013-03-29 03:34:00,35.7,25.6,30.26,SE,135,0.0,0.0,66,0.00,,,0.00,WUHU216HW,2013-03-29 07:34:00,
2013-03-29 03:39:00,35.4,25.4,30.26,SE,135,2.0,3.3,66,0.00,,,0.00,WUHU216HW,2013-03-29 07:39:00,
2013-03-29 03:44:00,35.2,25.2,30.26,SE,135,1.3,3.3,66,0.00,,,0.00,WUHU216HW,2013-03-29 07:44:00,
2013-03-29 03:49:00,34.8,24.8,30.26,SE,135,0.0,1.5,66,0.00,,,0.00,WUHU216HW,2013-03-29 07:49:00,
2013-03-29 03:54:00,34.7,24.7,30.25,SE,135,0.0,0.0,66,0.00,,,0.00,WUHU216HW,2013-03-29 07:54:00,
2013-03-29 03:59:00,34.5,24.5,30.25,SE,135,4.4,4.4,66,0.00,,,0.00,WUHU216HW,2013-03-29 07:59:00,
2013-03-29 04:04:00,34.3,24.3,30.25,SE,135,0.0,4.4,66,0.00,,,0.00,WUHU216HW,2013-03-29 08:04:00,
2013-03-29 04:09:00,33.6,24.0,30.25,SE,135,2.4,4.6,67,0.00,,,0.00,WUHU216HW,2013-03-29 08:09:00,
2013-03-29 04:14:00,33.4,23.8,30.25,SE,135,1.7,4.6,67,0.00,,,0.00,WUHU216HW,2013-03-29 08:14:00,
2013-03-29 04:19:00,33.2,24.0,30.25,SE,135,2.6,2.6,68,0.00,,,0.00,WUHU216HW,2013-03-29 08:19:00,
2013-03-29 04:24:00,33.0,23.8,30.25,SE,135,0.0,2.6,68,0.00,,,0.00,WUHU216HW,2013-03-29 08:24:00,
2013-03-29 04:29:00,33.0,23.8,30.25,SE,135,3.1,3.1,68,0.00,,,0.00,WUHU216HW,2013-03-29 08:29:00,
2013-03-29 04:34:00,33.0,23.8,30.25,SE,135,2.9,3.1,68,0.00,,,0.00,WUHU216HW,2013-03-29 08:34:00,
2013-03-29 04:40:00,32.9,23.7,30.25,SE,135,2.9,3.1,68,0.00,,,0.00,WUHU216HW,2013-03-29 08:40:00,
2013-03-29 04:45:00,32.7,23.8,30.25,SE,135,2.8,3.3,69,0.00,,,0.00,WUHU216HW,2013-03-29 08:45:00,
2013-03-29 04:50:00,32.3,23.4,30.26,SE,135,3.1,3.3,69,0.00,,,0.00,WUHU216HW,2013-03-29 08:50:00,
2013-03-29 04:55:00,32.1,23.6,30.25,SE,135,1.5,5.1,70,0.00,,,0.00,WUHU216HW,2013-03-29 08:55:00,
2013-03-29 05:00:00,32.1,23.6,30.25,SE,135,5.1,5.1,70,0.00,,,0.00,WUHU216HW,2013-03-29 09:00:00,
2013-03-29 05:05:00,32.1,23.6,30.25,SSE,158,2.6,5.1,70,0.00,,,0.00,WUHU216HW,2013-03-29 09:05:00,
2013-03-29 05:10:00,32.1,23.6,30.25,SSE,158,1.7,5.1,70,0.00,,,0.00,WUHU216HW,2013-03-29 09:10:00,
2013-03-29 05:15:00,32.3,23.8,30.26,SSE,158,2.4,3.1,70,0.00,,,0.00,WUHU216HW,2013-03-29 09:15:00,
2013-03-29 05:20:00,32.3,23.8,30.26,SSE,158,2.6,2.6,70,0.00,,,0.00,WUHU216HW,2013-03-29 09:20:00,
2013-03-29 05:25:00,32.5,24.0,30.25,SSE,158,2.0,4.4,70,0.00,,,0.00,WUHU216HW,2013-03-29 09:25:00,
2013-03-29 05:30:00,32.1,23.6,30.26,SSE,158,4.1,6.4,70,0.00,,,0.00,WUHU216HW,2013-03-29 09:30:00,
2013-03-29 05:35:00,32.1,23.6,30.26,SSE,158,2.4,6.4,70,0.00,,,0.00,WUHU216HW,2013-03-29 09:35:00,
2013-03-29 05:40:00,31.6,23.5,30.26,SSE,158,4.9,4.9,71,0.00,,,0.00,WUHU216HW,2013-03-29 09:40:00,
2013-03-29 05:45:00,31.2,23.1,30.26,SSE,158,2.5,4.9,71,0.00,,,0.00,WUHU216HW,2013-03-29 09:45:00,
2013-03-29 05:50:00,31.1,23.0,30.26,SSE,158,3.8,3.8,71,0.00,,,0.00,WUHU216HW,2013-03-29 09:50:00,
2013-03-29 05:55:00,30.9,22.8,30.26,SSE,158,3.5,3.8,71,0.00,,,0.00,WUHU216HW,2013-03-29 09:55:00,
2013-03-29 06:00:00,30.7,22.9,30.26,SSE,158,4.2,4.2,72,0.00,,,0.00,WUHU216HW,2013-03-29 10:00:00,
2013-03-29 06:05:00,30.3,22.5,30.26,SSE,158,2.8,4.2,72,0.00,,,0.00,WUHU216HW,2013-03-29 10:05:00,
2013-03-29 06:10:00,30.2,22.4,30.26,SSE,158,1.8,3.3,72,0.00,,,0.00,WUHU216HW,2013-03-29 10:10:00,
2013-03-29 06:15:00,30.2,22.4,30.26,SSE,158,3.3,3.3,72,0.00,,,0.00,WUHU216HW,2013-03-29 10:15:00,
2013-03-29 06:21:00,30.0,22.6,30.26,SSE,158,2.4,3.3,73,0.00,,,0.00,WUHU216HW,2013-03-29 10:21:00,
2013-03-29 06:26:00,29.8,22.4,30.26,SSE,158,2.4,2.9,73,0.00,,,0.00,WUHU216HW,2013-03-29 10:26:00,
2013-03-29 06:31:00,29.8,22.4,30.26,SSE,158,2.0,2.4,73,0.00,,,0.00,WUHU216HW,2013-03-29 10:31:00,
2013-03-29 06:36:00,30.0,22.6,30.27,SSE,158,3.3,3.3,73,0.00,,,0.00,WUHU216HW,2013-03-29 10:36:00,
2013-03-29 06:41:00,30.0,22.6,30.27,SSE,158,0.8,3.3,73,0.00,,,0.00,WUHU216HW,2013-03-29 10:41:00,
2013-03-29 06:46:00,30.0,22.6,30.27,SSE,158,0.0,1.3,73,0.00,,,0.00,WUHU216HW,2013-03-29 10:46:00,
2013-03-29 06:51:00,30.0,22.6,30.27,SSE,158,0.0,0.0,73,0.00,,,0.00,WUHU216HW,2013-03-29 10:51:00,
2013-03-29 06:56:00,30.0,22.6,30.27,SSE,158,1.3,2.6,73,0.00,,,0.00,WUHU216HW,2013-03-29 10:56:00,
2013-03-29 07:01:00,30.3,22.8,30.27,SSE,158,0.0,2.6,73,0.00,,,0.00,WUHU216HW,2013-03-29 11:01:00,
2013-03-29 07:07:00,30.5,23.0,30.27,SSE,158,4.0,4.0,73,0.00,,,0.00,WUHU216HW,2013-03-29 11:07:00,
2013-03-29 07:12:00,30.7,23.2,30.28,SSE,158,3.3,4.0,73,0.00,,,0.00,WUHU216HW,2013-03-29 11:12:00,
2013-03-29 07:17:00,30.9,23.4,30.28,SSE,158,2.9,4.0,73,0.00,,,0.00,WUHU216HW,2013-03-29 11:17:00,
2013-03-29 07:22:00,31.1,23.6,30.28,SSE,158,3.1,3.3,73,0.00,,,0.00,WUHU216HW,2013-03-29 11:22:00,
2013-03-29 07:27:00,31.1,23.6,30.28,SSE,158,1.1,3.3,73,0.00,,,0.00,WUHU216HW,2013-03-29 11:27:00,
2013-03-29 07:32:00,31.2,23.7,30.28,SSE,158,1.9,2.9,73,0.00,,,0.00,WUHU216HW,2013-03-29 11:32:00,
2013-03-29 07:37:00,31.6,23.8,30.28,SSE,158,2.6,2.9,72,0.00,,,0.00,WUHU216HW,2013-03-29 11:37:00,
2013-03-29 07:42:00,31.8,24.0,30.28,SSE,158,2.9,3.3,72,0.00,,,0.00,WUHU216HW,2013-03-29 11:42:00,
2013-03-29 07:47:00,32.1,24.3,30.28,SSE,158,3.1,3.3,72,0.00,,,0.00,WUHU216HW,2013-03-29 11:47:00,
2013-03-29 07:53:00,32.3,24.5,30.28,SSE,158,3.1,3.1,72,0.00,,,0.00,WUHU216HW,2013-03-29 11:53:00,
2013-03-29 07:58:00,32.7,24.8,30.28,SSE,158,3.3,3.3,72,0.00,,,0.00,WUHU216HW,2013-03-29 11:58:00,
2013-03-29 08:03:00,32.9,25.0,30.29,SSE,158,2.4,3.3,72,0.00,,,0.00,WUHU216HW,2013-03-29 12:03:00,
2013-03-29 08:08:00,33.2,25.3,30.29,SSE,158,2.4,3.3,72,0.00,,,0.00,WUHU216HW,2013-03-29 12:08:00,
2013-03-29 08:13:00,33.6,25.7,30.29,SSE,158,3.4,3.5,72,0.00,,,0.00,WUHU216HW,2013-03-29 12:13:00,
2013-03-29 08:18:00,33.6,25.7,30.29,East,90,2.6,3.5,72,0.00,,,0.00,WUHU216HW,2013-03-29 12:18:00,
2013-03-29 08:23:00,34.1,26.2,30.29,East,90,2.2,3.5,72,0.00,,,0.00,WUHU216HW,2013-03-29 12:23:00,
2013-03-29 08:28:00,34.3,26.1,30.29,East,90,2.6,3.5,71,0.00,,,0.00,WUHU216HW,2013-03-29 12:28:00,
2013-03-29 08:33:00,34.5,26.2,30.29,East,90,2.4,2.6,71,0.00,,,0.00,WUHU216HW,2013-03-29 12:33:00,
2013-03-29 08:38:00,34.8,26.5,30.29,East,90,1.3,2.6,71,0.00,,,0.00,WUHU216HW,2013-03-29 12:38:00,
2013-03-29 08:43:00,35.2,26.6,30.29,East,90,0.0,1.7,70,0.00,,,0.00,WUHU216HW,2013-03-29 12:43:00,
2013-03-29 08:48:00,35.4,26.8,30.29,East,90,1.2,1.5,70,0.00,,,0.00,WUHU216HW,2013-03-29 12:48:00,
2013-03-29 08:54:00,36.1,27.4,30.29,East,90,0.0,1.5,70,0.00,,,0.00,WUHU216HW,2013-03-29 12:54:00,
2013-03-29 08:59:00,36.5,27.8,30.29,East,90,0.0,0.6,70,0.00,,,0.00,WUHU216HW,2013-03-29 12:59:00,
2013-03-29 09:04:00,37.5,28.8,30.29,East,90,2.0,2.0,70,0.00,,,0.00,WUHU216HW,2013-03-29 13:04:00,
2013-03-29 09:09:00,37.9,28.8,30.29,East,90,2.5,3.5,69,0.00,,,0.00,WUHU216HW,2013-03-29 13:09:00,
2013-03-29 09:14:00,38.3,29.2,30.29,East,90,0.0,3.5,69,0.00,,,0.00,WUHU216HW,2013-03-29 13:14:00,
2013-03-29 09:19:00,38.8,29.7,30.29,East,90,1.3,1.5,69,0.00,,,0.00,WUHU216HW,2013-03-29 13:19:00,
2013-03-29 09:24:00,39.3,30.2,30.29,East,90,2.2,2.2,69,0.00,,,0.00,WUHU216HW,2013-03-29 13:24:00,
2013-03-29 09:29:00,40.1,30.6,30.29,NE,45,0.0,2.2,68,0.00,,,0.00,WUHU216HW,2013-03-29 13:29:00,
2013-03-29 09:34:00,41.5,31.6,30.29,NW,315,3.3,3.3,67,0.00,,,0.00,WUHU216HW,2013-03-29 13:34:00,
2013-03-29 09:39:00,42.2,31.9,30.29,NW,315,4.2,4.2,66,0.00,,,0.00,WUHU216HW,2013-03-29 13:39:00,
2013-03-29 09:44:00,43.8,33.0,30.29,NW,315,2.0,4.2,65,0.00,,,0.00,WUHU216HW,2013-03-29 13:44:00,
2013-03-29 09:49:00,44.7,33.1,30.28,NW,315,2.0,2.9,63,0.00,,,0.00,WUHU216HW,2013-03-29 13:49:00,
2013-03-29 09:54:00,45.5,33.4,30.28,NNW,338,5.8,5.8,62,0.00,,,0.00,WUHU216HW,2013-03-29 13:54:00,
2013-03-29 09:59:00,46.5,33.1,30.28,NNW,336,4.8,5.8,59,0.00,,,0.00,WUHU216HW,2013-03-29 13:59:00,
2013-03-29 10:04:00,47.1,33.7,30.28,North,0,1.3,5.1,59,0.00,,,0.00,WUHU216HW,2013-03-29 14:04:00,
2013-03-29 10:09:00,47.8,33.9,30.28,WNW,293,0.6,4.6,58,0.00,,,0.00,WUHU216HW,2013-03-29 14:09:00,
2013-03-29 10:14:00,48.3,33.5,30.27,NNW,338,1.7,2.2,56,0.00,,,0.00,WUHU216HW,2013-03-29 14:14:00,
2013-03-29 10:20:00,48.5,32.8,30.28,WNW,293,5.3,5.3,54,0.00,,,0.00,WUHU216HW,2013-03-29 14:20:00,
2013-03-29 10:25:00,48.9,33.1,30.28,NNW,338,5.8,5.8,54,0.00,,,0.00,WUHU216HW,2013-03-29 14:25:00,
2013-03-29 10:30:00,49.6,33.8,30.27,NNE,13,3.8,5.8,54,0.00,,,0.00,WUHU216HW,2013-03-29 14:30:00,
2013-03-29 10:35:00,49.8,33.0,30.27,SW,225,5.3,5.8,52,0.00,,,0.00,WUHU216HW,2013-03-29 14:35:00,
2013-03-29 10:40:00,49.8,33.0,30.27,East,90,5.3,5.3,52,0.00,,,0.00,WUHU216HW,2013-03-29 14:40:00,
2013-03-29 10:45:00,50.1,32.8,30.27,SE,135,6.7,6.7,51,0.00,,,0.00,WUHU216HW,2013-03-29 14:45:00,
2013-03-29 10:50:00,50.3,32.5,30.27,ESE,113,2.9,6.7,50,0.00,,,0.00,WUHU216HW,2013-03-29 14:50:00,
2013-03-29 10:55:00,50.1,31.8,30.27,SSW,203,0.0,6.7,49,0.00,,,0.00,WUHU216HW,2013-03-29 14:55:00,
2013-03-29 11:00:00,50.5,31.6,30.27,SE,135,5.1,5.1,48,0.00,,,0.00,WUHU216HW,2013-03-29 15:00:00,
2013-03-29 11:05:00,50.5,31.1,30.27,ESE,113,3.3,5.1,47,0.00,,,0.00,WUHU216HW,2013-03-29 15:05:00,
2013-03-29 11:10:00,50.7,31.2,30.27,SSE,158,7.3,7.3,47,0.00,,,0.00,WUHU216HW,2013-03-29 15:10:00,
2013-03-29 11:15:00,51.0,32.1,30.27,South,181,6.3,7.3,48,0.00,,,0.00,WUHU216HW,2013-03-29 15:15:00,
2013-03-29 11:20:00,51.0,31.5,30.27,ESE,113,6.0,6.4,47,0.00,,,0.00,WUHU216HW,2013-03-29 15:20:00,
2013-03-29 11:25:00,50.9,30.9,30.26,ESE,113,5.8,6.2,46,0.00,,,0.00,WUHU216HW,2013-03-29 15:25:00,
2013-03-29 11:30:00,51.6,32.6,30.26,SSE,158,3.5,5.8,48,0.00,,,0.00,WUHU216HW,2013-03-29 15:30:00,
2013-03-29 11:35:00,51.4,31.3,30.27,SSW,203,2.4,4.6,46,0.00,,,0.00,WUHU216HW,2013-03-29 15:35:00,
2013-03-29 11:40:00,51.2,31.7,30.26,SSW,201,3.0,4.6,47,0.00,,,0.00,WUHU216HW,2013-03-29 15:40:00,
2013-03-29 11:46:00,51.4,31.3,30.26,SW,225,5.1,5.3,46,0.00,,,0.00,WUHU216HW,2013-03-29 15:46:00,
2013-03-29 11:51:00,51.4,30.8,30.26,SW,225,1.3,6.9,45,0.00,,,0.00,WUHU216HW,2013-03-29 15:51:00,
2013-03-29 11:56:00,51.9,31.2,30.26,SE,126,4.7,6.9,45,0.00,,,0.00,WUHU216HW,2013-03-29 15:56:00,
2013-03-29 12:01:00,52.3,31.6,30.26,SSE,158,2.0,6.4,45,0.00,,,0.00,WUHU216HW,2013-03-29 16:01:00,
2013-03-29 12:06:00,52.3,30.4,30.26,ESE,113,2.2,5.5,43,0.00,,,0.00,WUHU216HW,2013-03-29 16:06:00,
2013-03-29 12:11:00,52.1,29.7,30.25,SSE,158,0.0,5.5,42,0.00,,,0.00,WUHU216HW,2013-03-29 16:11:00,
2013-03-29 12:17:00,52.1,30.3,30.25,SE,135,10.2,10.2,43,0.00,,,0.00,WUHU216HW,2013-03-29 16:17:00,
2013-03-29 12:22:00,51.9,29.5,30.25,SW,218,4.1,10.2,42,0.00,,,0.00,WUHU216HW,2013-03-29 16:22:00,
2013-03-29 12:27:00,52.1,29.7,30.25,SSW,203,1.3,7.1,42,0.00,,,0.00,WUHU216HW,2013-03-29 16:27:00,
2013-03-29 12:32:00,52.3,29.2,30.25,SSE,158,3.3,4.9,41,0.00,,,0.00,WUHU216HW,2013-03-29 16:32:00,
2013-03-29 12:37:00,52.3,29.9,30.25,ESE,113,2.2,6.4,42,0.00,,,0.00,WUHU216HW,2013-03-29 16:37:00,
2013-03-29 12:42:00,52.5,29.4,30.25,SSE,158,4.6,6.4,41,0.00,,,0.00,WUHU216HW,2013-03-29 16:42:00,
2013-03-29 12:47:00,52.5,29.4,30.25,SW,225,7.1,7.1,41,0.00,,,0.00,WUHU216HW,2013-03-29 16:47:00,
2013-03-29 12:52:00,52.7,29.0,30.25,SSE,158,3.3,7.1,40,0.00,,,0.00,WUHU216HW,2013-03-29 16:52:00,
2013-03-29 12:57:00,52.8,29.7,30.24,SE,135,6.2,7.1,41,0.00,,,0.00,WUHU216HW,2013-03-29 16:57:00,
2013-03-29 13:02:00,53.4,30.2,30.24,SSE,153,4.9,8.7,41,0.00,,,0.00,WUHU216HW,2013-03-29 17:02:00,
2013-03-29 13:07:00,54.3,31.1,30.24,South,180,0.0,8.7,41,0.00,,,0.00,WUHU216HW,2013-03-29 17:07:00,
2013-03-29 13:12:00,54.3,30.4,30.24,SW,225,1.7,5.5,40,0.00,,,0.00,WUHU216HW,2013-03-29 17:12:00,
2013-03-29 13:17:00,53.7,29.9,30.24,SW,225,6.7,8.5,40,0.00,,,0.00,WUHU216HW,2013-03-29 17:17:00,
2013-03-29 13:22:00,53.4,29.6,30.24,WSW,242,4.0,8.5,40,0.00,,,0.00,WUHU216HW,2013-03-29 17:22:00,
2013-03-29 13:27:00,53.4,29.6,30.23,SSW,203,5.5,7.6,40,0.00,,,0.00,WUHU216HW,2013-03-29 17:27:00,
2013-03-29 13:33:00,53.4,29.6,30.23,SE,135,4.0,5.5,40,0.00,,,0.00,WUHU216HW,2013-03-29 17:33:00,
2013-03-29 13:38:00,53.2,29.4,30.23,SSW,203,4.4,5.8,40,0.00,,,0.00,WUHU216HW,2013-03-29 17:38:00,
2013-03-29 13:43:00,53.2,28.2,30.23,SE,135,5.8,5.8,38,0.00,,,0.00,WUHU216HW,2013-03-29 17:43:00,
2013-03-29 13:48:00,52.8,27.8,30.22,SSE,158,6.9,6.9,38,0.00,,,0.00,WUHU216HW,2013-03-29 17:48:00,
2013-03-29 13:53:00,52.8,27.8,30.22,SE,129,9.6,11.1,38,0.00,,,0.00,WUHU216HW,2013-03-29 17:53:00,
2013-03-29 13:58:00,53.7,28.6,30.22,South,180,5.1,11.1,38,0.00,,,0.00,WUHU216HW,2013-03-29 17:58:00,
2013-03-29 14:03:00,54.3,29.1,30.22,SSW,203,3.3,8.2,38,0.00,,,0.00,WUHU216HW,2013-03-29 18:03:00,
2013-03-29 14:08:00,55.0,29.8,30.21,ENE,68,6.7,7.6,38,0.00,,,0.00,WUHU216HW,2013-03-29 18:08:00,
2013-03-29 14:13:00,55.0,28.4,30.21,SE,135,4.2,7.6,36,0.00,,,0.00,WUHU216HW,2013-03-29 18:13:00,
2013-03-29 14:18:00,55.0,29.1,30.21,SE,135,11.8,11.8,37,0.00,,,0.00,WUHU216HW,2013-03-29 18:18:00,
2013-03-29 14:23:00,55.4,29.5,30.21,East,96,7.6,11.8,37,0.00,,,0.00,WUHU216HW,2013-03-29 18:23:00,
2013-03-29 14:28:00,56.3,29.6,30.21,ESE,110,8.3,11.4,36,0.00,,,0.00,WUHU216HW,2013-03-29 18:28:00,
2013-03-29 14:33:00,56.3,28.9,30.20,SE,135,6.4,9.3,35,0.00,,,0.00,WUHU216HW,2013-03-29 18:33:00,
2013-03-29 14:38:00,56.1,28.7,30.20,SSE,158,12.9,12.9,35,0.00,,,0.00,WUHU216HW,2013-03-29 18:38:00,
2013-03-29 14:43:00,56.1,28.7,30.20,SW,236,6.2,12.9,35,0.00,,,0.00,WUHU216HW,2013-03-29 18:43:00,
2013-03-29 14:48:00,56.8,30.0,30.19,SE,144,2.7,12.9,36,0.00,,,0.00,WUHU216HW,2013-03-29 18:48:00,
2013-03-29 14:53:00,57.2,29.7,30.19,SE,135,10.2,10.2,35,0.00,,,0.00,WUHU216HW,2013-03-29 18:53:00,
2013-03-29 14:59:00,57.7,29.4,30.19,SW,225,0.8,14.0,34,0.00,,,0.00,WUHU216HW,2013-03-29 18:59:00,
2013-03-29 15:04:00,57.3,29.1,30.19,WSW,248,8.4,14.0,34,0.00,,,0.00,WUHU216HW,2013-03-29 19:04:00,
2013-03-29 15:09:00,57.2,29.0,30.19,SW,225,3.5,8.7,34,0.00,,,0.00,WUHU216HW,2013-03-29 19:09:00,
2013-03-29 15:14:00,56.6,28.4,30.18,South,180,0.2,8.2,34,0.00,,,0.00,WUHU216HW,2013-03-29 19:14:00,
2013-03-29 15:19:00,55.7,28.4,30.18,SSE,158,5.8,8.5,35,0.00,,,0.00,WUHU216HW,2013-03-29 19:19:00,
2013-03-29 15:24:00,55.0,27.7,30.18,SSW,203,4.4,8.5,35,0.00,,,0.00,WUHU216HW,2013-03-29 19:24:00,
2013-03-29 15:29:00,54.3,26.4,30.18,South,180,2.9,5.8,34,0.00,,,0.00,WUHU216HW,2013-03-29 19:29:00,
2013-03-29 15:34:00,53.9,26.8,30.18,SSE,158,6.7,6.7,35,0.00,,,0.00,WUHU216HW,2013-03-29 19:34:00,
2013-03-29 15:39:00,54.3,27.8,30.18,SW,225,3.1,6.7,36,0.00,,,0.00,WUHU216HW,2013-03-29 19:39:00,
2013-03-29 15:44:00,55.0,27.0,30.18,SE,135,7.1,7.1,34,0.00,,,0.00,WUHU216HW,2013-03-29 19:44:00,
2013-03-29 15:49:00,55.5,28.9,30.17,SE,128,4.7,7.1,36,0.00,,,0.00,WUHU216HW,2013-03-29 19:49:00,
2013-03-29 15:54:00,55.9,27.1,30.17,ESE,113,8.2,12.3,33,0.00,,,0.00,WUHU216HW,2013-03-29 19:54:00,
2013-03-29 15:59:00,56.3,28.9,30.17,ENE,68,0.0,12.3,35,0.00,,,0.00,WUHU216HW,2013-03-29 19:59:00,
2013-03-29 16:04:00,56.8,27.9,30.16,SE,135,8.2,8.2,33,0.00,,,0.00,WUHU216HW,2013-03-29 20:04:00,
2013-03-29 16:09:00,56.4,26.8,30.17,SSE,158,5.1,11.4,32,0.00,,,0.00,WUHU216HW,2013-03-29 20:09:00,
2013-03-29 16:14:00,55.9,27.1,30.17,SW,225,8.9,11.4,33,0.00,,,0.00,WUHU216HW,2013-03-29 20:14:00,
2013-03-29 16:19:00,55.7,26.9,30.17,SW,225,5.3,8.9,33,0.00,,,0.00,WUHU216HW,2013-03-29 20:19:00,
2013-03-29 16:24:00,55.5,26.7,30.16,SSW,203,5.8,8.9,33,0.00,,,0.00,WUHU216HW,2013-03-29 20:24:00,
2013-03-29 16:30:00,55.5,28.2,30.16,SSW,203,4.0,5.8,35,0.00,,,0.00,WUHU216HW,2013-03-29 20:30:00,
2013-03-29 16:35:00,55.7,28.4,30.16,South,180,0.8,5.8,35,0.00,,,0.00,WUHU216HW,2013-03-29 20:35:00,
2013-03-29 16:40:00,55.2,27.2,30.16,SW,219,3.9,5.8,34,0.00,,,0.00,WUHU216HW,2013-03-29 20:40:00,
2013-03-29 16:45:00,55.0,27.0,30.16,South,180,0.0,5.8,34,0.00,,,0.00,WUHU216HW,2013-03-29 20:45:00,
2013-03-29 16:50:00,55.2,27.2,30.16,SSW,203,0.6,2.0,34,0.00,,,0.00,WUHU216HW,2013-03-29 20:50:00,
2013-03-29 16:55:00,55.2,27.2,30.16,WSW,248,6.4,6.4,34,0.00,,,0.00,WUHU216HW,2013-03-29 20:55:00,
2013-03-29 17:00:00,55.2,26.5,30.16,SW,225,2.0,8.5,33,0.00,,,0.00,WUHU216HW,2013-03-29 21:00:00,
2013-03-29 17:05:00,55.5,27.5,30.16,West,270,6.4,8.5,34,0.00,,,0.00,WUHU216HW,2013-03-29 21:05:00,
2013-03-29 17:10:00,55.7,26.9,30.16,South,180,2.6,6.4,33,0.00,,,0.00,WUHU216HW,2013-03-29 21:10:00,
2013-03-29 17:15:00,55.9,27.1,30.16,SSW,203,2.6,6.4,33,0.00,,,0.00,WUHU216HW,2013-03-29 21:15:00,
2013-03-29 17:20:00,56.3,27.4,30.15,WNW,293,5.8,5.8,33,0.00,,,0.00,WUHU216HW,2013-03-29 21:20:00,
2013-03-29 17:25:00,56.1,27.3,30.15,WSW,248,3.3,6.0,33,0.00,,,0.00,WUHU216HW,2013-03-29 21:25:00,
2013-03-29 17:30:00,55.9,27.1,30.16,WSW,248,4.9,6.0,33,0.00,,,0.00,WUHU216HW,2013-03-29 21:30:00,
2013-03-29 17:36:00,55.2,26.5,30.16,SW,225,5.1,5.3,33,0.00,,,0.00,WUHU216HW,2013-03-29 21:36:00,
2013-03-29 17:41:00,55.2,27.2,30.16,SW,225,1.3,5.1,34,0.00,,,0.00,WUHU216HW,2013-03-29 21:41:00,
2013-03-29 17:46:00,55.4,27.4,30.16,SW,225,1.3,5.1,34,0.00,,,0.00,WUHU216HW,2013-03-29 21:46:00,
2013-03-29 17:51:00,55.4,28.1,30.16,SSW,205,4.6,5.1,35,0.00,,,0.00,WUHU216HW,2013-03-29 21:51:00,
2013-03-29 17:56:00,55.2,26.5,30.16,SW,225,6.2,6.2,33,0.00,,,0.00,WUHU216HW,2013-03-29 21:56:00,
2013-03-29 18:02:00,55.2,27.2,30.16,SE,135,4.0,6.2,34,0.00,,,0.00,WUHU216HW,2013-03-29 22:02:00,
2013-03-29 18:07:00,55.7,27.6,30.16,SSE,158,5.5,6.0,34,0.00,,,0.00,WUHU216HW,2013-03-29 22:07:00,
2013-03-29 18:12:00,55.9,27.1,30.16,SSE,158,6.2,6.2,33,0.00,,,0.00,WUHU216HW,2013-03-29 22:12:00,
2013-03-29 18:17:00,55.7,26.2,30.16,SW,225,4.2,6.2,32,0.00,,,0.00,WUHU216HW,2013-03-29 22:17:00,
2013-03-29 18:22:00,55.2,25.7,30.16,SE,135,5.3,12.3,32,0.00,,,0.00,WUHU216HW,2013-03-29 22:22:00,
2013-03-29 18:27:00,55.0,26.3,30.16,SSW,195,1.3,12.3,33,0.00,,,0.00,WUHU216HW,2013-03-29 22:27:00,
2013-03-29 18:32:00,54.6,25.9,30.16,SSW,203,1.1,1.7,33,0.00,,,0.00,WUHU216HW,2013-03-29 22:32:00,
2013-03-29 18:37:00,54.5,25.9,30.17,West,270,6.0,6.0,33,0.00,,,0.00,WUHU216HW,2013-03-29 22:37:00,
2013-03-29 18:42:00,54.3,25.7,30.17,SW,225,3.3,6.0,33,0.00,,,0.00,WUHU216HW,2013-03-29 22:42:00,
2013-03-29 18:48:00,54.3,25.7,30.16,South,180,0.6,6.0,33,0.00,,,0.00,WUHU216HW,2013-03-29 22:48:00,
2013-03-29 18:53:00,54.3,26.4,30.16,SSW,212,4.0,6.4,34,0.00,,,0.00,WUHU216HW,2013-03-29 22:53:00,
2013-03-29 18:58:00,54.1,26.2,30.17,SSE,158,0.0,6.4,34,0.00,,,0.00,WUHU216HW,2013-03-29 22:58:00,
2013-03-29 19:03:00,53.7,25.9,30.17,SW,216,2.2,3.5,34,0.00,,,0.00,WUHU216HW,2013-03-29 23:03:00,
2013-03-29 19:08:00,53.4,25.6,30.17,SSW,203,3.5,3.5,34,0.00,,,0.00,WUHU216HW,2013-03-29 23:08:00,
2013-03-29 19:13:00,53.2,25.4,30.17,SW,225,5.5,5.5,34,0.00,,,0.00,WUHU216HW,2013-03-29 23:13:00,
2013-03-29 19:18:00,52.8,25.1,30.17,SW,225,5.4,6.4,34,0.00,,,0.00,WUHU216HW,2013-03-29 23:18:00,
2013-03-29 19:23:00,52.7,25.7,30.17,SW,225,1.3,6.4,35,0.00,,,0.00,WUHU216HW,2013-03-29 23:23:00,
2013-03-29 19:28:00,52.1,25.2,30.17,WSW,248,4.9,4.9,35,0.00,,,0.00,WUHU216HW,2013-03-29 23:28:00,
2013-03-29 19:33:00,51.6,24.7,30.18,WSW,248,3.8,6.0,35,0.00,,,0.00,WUHU216HW,2013-03-29 23:33:00,
2013-03-29 19:38:00,51.6,25.4,30.18,WSW,248,2.6,6.0,36,0.00,,,0.00,WUHU216HW,2013-03-29 23:38:00,
2013-03-29 19:43:00,51.2,25.0,30.18,SW,225,6.4,6.4,36,0.00,,,0.00,WUHU216HW,2013-03-29 23:43:00,
2013-03-29 19:48:00,51.0,25.5,30.18,WSW,248,2.6,6.4,37,0.00,,,0.00,WUHU216HW,2013-03-29 23:48:00,
2013-03-29 19:53:00,50.7,25.3,30.18,WSW,248,4.4,4.4,37,0.00,,,0.00,WUHU216HW,2013-03-29 23:53:00,
2013-03-29 19:58:00,50.5,25.1,30.18,WSW,248,2.4,4.4,37,0.00,,,0.00,WUHU216HW,2013-03-29 23:58:00,
2013-03-29 20:03:00,50.1,24.7,30.18,WSW,248,0.0,4.4,37,0.00,,,0.00,WUHU216HW,2013-03-30 00:03:00,
2013-03-29 20:08:00,50.0,25.3,30.18,WSW,248,0.0,3.1,38,0.00,,,0.00,WUHU216HW,2013-03-30 00:08:00,
2013-03-29 20:14:00,49.6,24.9,30.18,WSW,248,0.0,0.0,38,0.00,,,0.00,WUHU216HW,2013-03-30 00:14:00,
2013-03-29 20:19:00,49.2,24.6,30.18,WSW,248,0.0,0.0,38,0.00,,,0.00,WUHU216HW,2013-03-30 00:19:00,
2013-03-29 20:24:00,49.1,25.1,30.18,WSW,248,0.0,0.0,39,0.00,,,0.00,WUHU216HW,2013-03-30 00:24:00,
2013-03-29 20:29:00,48.7,24.8,30.19,WSW,248,0.0,0.0,39,0.00,,,0.00,WUHU216HW,2013-03-30 00:29:00,
2013-03-29 20:34:00,48.3,24.4,30.19,WSW,248,0.0,0.0,39,0.00,,,0.00,WUHU216HW,2013-03-30 00:34:00,
2013-03-29 20:39:00,48.0,24.1,30.19,WSW,248,0.0,0.0,39,0.00,,,0.00,WUHU216HW,2013-03-30 00:39:00,
2013-03-29 20:44:00,47.8,24.6,30.20,WSW,248,0.0,0.0,40,0.00,,,0.00,WUHU216HW,2013-03-30 00:44:00,
2013-03-29 20:49:00,47.4,24.2,30.20,WSW,248,0.0,0.0,40,0.00,,,0.00,WUHU216HW,2013-03-30 00:49:00,
2013-03-29 20:54:00,47.1,24.5,30.20,SSE,158,1.1,2.6,41,0.00,,,0.00,WUHU216HW,2013-03-30 00:54:00,
2013-03-29 20:59:00,46.5,24.6,30.20,SSE,158,1.7,2.6,42,0.00,,,0.00,WUHU216HW,2013-03-30 00:59:00,
2013-03-29 21:04:00,46.5,24.6,30.20,SSE,158,0.8,2.4,42,0.00,,,0.00,WUHU216HW,2013-03-30 01:04:00,
2013-03-29 21:09:00,46.2,24.3,30.20,SSE,158,2.2,2.2,42,0.00,,,0.00,WUHU216HW,2013-03-30 01:09:00,
2013-03-29 21:14:00,45.6,24.4,30.21,SSE,158,2.0,2.2,43,0.00,,,0.00,WUHU216HW,2013-03-30 01:14:00,
2013-03-29 21:19:00,45.5,24.8,30.21,SSE,158,4.4,4.4,44,0.00,,,0.00,WUHU216HW,2013-03-30 01:19:00,
2013-03-29 21:24:00,45.1,25.0,30.21,SSE,158,5.1,5.1,45,0.00,,,0.00,WUHU216HW,2013-03-30 01:24:00,
2013-03-29 21:29:00,44.9,25.4,30.21,SSE,158,4.4,5.1,46,0.00,,,0.00,WUHU216HW,2013-03-30 01:29:00,
2013-03-29 21:34:00,44.9,25.4,30.21,SSE,158,4.0,5.1,46,0.00,,,0.00,WUHU216HW,2013-03-30 01:34:00,
2013-03-29 21:39:00,44.9,25.4,30.21,SSE,158,3.3,4.4,46,0.00,,,0.00,WUHU216HW,2013-03-30 01:39:00,
2013-03-29 21:44:00,44.6,25.6,30.21,SSE,158,2.9,3.3,47,0.00,,,0.00,WUHU216HW,2013-03-30 01:44:00,
2013-03-29 21:49:00,44.4,25.5,30.21,SSE,158,4.4,5.5,47,0.00,,,0.00,WUHU216HW,2013-03-30 01:49:00,
2013-03-29 21:55:00,44.4,25.5,30.22,SSE,158,3.8,5.5,47,0.00,,,0.00,WUHU216HW,2013-03-30 01:55:00,
2013-03-29 21:59:00,44.2,25.3,30.22,SSE,158,3.5,4.6,47,0.00,,,0.00,WUHU216HW,2013-03-30 01:59:00,
2013-03-29 22:05:00,43.8,25.4,30.22,SSE,158,3.3,4.6,48,0.00,,,0.00,WUHU216HW,2013-03-30 02:05:00,
2013-03-29 22:10:00,43.7,25.3,30.22,SSE,158,3.3,3.3,48,0.00,,,0.00,WUHU216HW,2013-03-30 02:10:00,
2013-03-29 22:15:00,43.5,25.1,30.22,SSE,158,1.7,3.3,48,0.00,,,0.00,WUHU216HW,2013-03-30 02:15:00,
2013-03-29 22:20:00,43.5,25.1,30.23,SSE,158,2.9,3.3,48,0.00,,,0.00,WUHU216HW,2013-03-30 02:20:00,
2013-03-29 22:25:00,43.3,25.0,30.23,SSE,158,3.8,3.8,48,0.00,,,0.00,WUHU216HW,2013-03-30 02:25:00,
2013-03-29 22:30:00,43.1,24.8,30.23,SSE,158,0.4,3.8,48,0.00,,,0.00,WUHU216HW,2013-03-30 02:30:00,
2013-03-29 22:35:00,42.9,24.6,30.23,SSE,158,2.1,3.8,48,0.00,,,0.00,WUHU216HW,2013-03-30 02:35:00,
2013-03-29 22:40:00,42.9,24.6,30.23,SSE,158,1.1,3.1,48,0.00,,,0.00,WUHU216HW,2013-03-30 02:40:00,
2013-03-29 22:45:00,42.6,24.3,30.23,SSE,158,2.4,3.5,48,0.00,,,0.00,WUHU216HW,2013-03-30 02:45:00,
2013-03-29 22:50:00,42.4,24.6,30.23,SSE,158,4.9,4.9,49,0.00,,,0.00,WUHU216HW,2013-03-30 02:50:00,
2013-03-29 22:55:00,42.2,24.5,30.23,SSE,158,3.5,4.9,49,0.00,,,0.00,WUHU216HW,2013-03-30 02:55:00,
2013-03-29 23:00:00,42.0,24.3,30.23,SSE,158,2.9,4.9,49,0.00,,,0.00,WUHU216HW,2013-03-30 03:00:00,
2013-03-29 23:05:00,41.9,24.2,30.23,SSE,158,2.2,3.5,49,0.00,,,0.00,WUHU216HW,2013-03-30 03:05:00,
2013-03-29 23:10:00,41.7,24.0,30.23,SSE,158,5.1,5.1,49,0.00,,,0.00,WUHU216HW,2013-03-30 03:10:00,
2013-03-29 23:16:00,41.9,24.2,30.23,SSE,158,4.9,5.1,49,0.00,,,0.00,WUHU216HW,2013-03-30 03:16:00,
2013-03-29 23:21:00,41.9,24.2,30.23,SSE,158,2.6,4.9,49,0.00,,,0.00,WUHU216HW,2013-03-30 03:21:00,
2013-03-29 23:26:00,41.7,24.0,30.23,SSE,158,2.9,4.9,49,0.00,,,0.00,WUHU216HW,2013-03-30 03:26:00,
2013-03-29 23:31:00,41.3,24.1,30.23,SSE,158,4.2,4.4,50,0.00,,,0.00,WUHU216HW,2013-03-30 03:31:00,
2013-03-29 23:36:00,41.1,23.9,30.23,SSE,158,5.1,5.3,50,0.00,,,0.00,WUHU216HW,2013-03-30 03:36:00,
2013-03-29 23:41:00,41.1,23.9,30.23,SSE,158,4.0,5.3,50,0.00,,,0.00,WUHU216HW,2013-03-30 03:41:00,
2013-03-29 23:46:00,40.8,24.2,30.23,SSE,158,4.9,4.9,51,0.00,,,0.00,WUHU216HW,2013-03-30 03:46:00,
2013-03-29 23:51:00,40.6,24.0,30.23,SSE,158,4.6,5.8,51,0.00,,,0.00,WUHU216HW,2013-03-30 03:51:00,
2013-03-29 23:56:00,40.2,24.1,30.23,SSE,158,4.2,5.8,52,0.00,,,0.00,WUHU216HW,2013-03-30 03:56:00,